Frio Chikuma — 3FWG8 — position and weather

sailwx.info

Track history (hours):
 
Tides and Currents Weather Stations Pressure Air Temp Water Temp Dewpoint Dewpoint Depression Visibility Wind Speed Wind Dir Waves Ship Positions

Frio Chikuma

Last reported at 2016-Jul-24 11:13 UTC. Time now 2016-Jul-28 14:32 UTC.
Position N 21°58' W 018°19'.

Length 135 m; draft 5.2 m.

Type: Cargo ship. MMSI: 353306000.

Date/timePositionNaut miles runAvg speedWind from/ knotsBaromVisibWave heightAir tempDewpointWater temp
2016-Jul-24 11:13N 21°58' W 018°19'38315.5
2016-Jul-23 10:29N 27°46' W 015°21'1414.7
2016-Jul-23 09:33N 27°59' W 015°20'1010.1
2016-Jul-23 08:33N 28°08' W 015°25'1 0.7
2016-Jul-23 07:32N 28°09' W 015°25'0 0.0
2016-Jul-23 06:32N 28°09' W 015°25'0 0.0
2016-Jul-23 04:32N 28°09' W 015°25'0 0.0
2016-Jul-23 03:32N 28°09' W 015°25'0 0.0
2016-Jul-23 02:32N 28°09' W 015°25'0 0.0
2016-Jul-23 01:32N 28°09' W 015°25'0 0.0
2016-Jul-23 00:32N 28°09' W 015°25'0 0.0
2016-Jul-22 23:32N 28°09' W 015°25'0 0.0
2016-Jul-22 22:32N 28°09' W 015°25'0 0.0
2016-Jul-22 21:32N 28°09' W 015°25'0 0.0
2016-Jul-22 20:32N 28°09' W 015°25'0 0.0
2016-Jul-22 19:32N 28°09' W 015°25'0 0.0
2016-Jul-22 18:32N 28°09' W 015°25'0 0.3
2016-Jul-22 17:33N 28°08' W 015°25'3 3.0
2016-Jul-22 16:32N 28°07' W 015°22'2 1.9
2016-Jul-22 15:33N 28°09' W 015°21'4 4.3
2016-Jul-22 14:33N 28°13' W 015°20'4 3.4
2016-Jul-22 13:31N 28°16' W 015°19'1 1.1
2016-Jul-22 12:22N 28°17' W 015°18'1 1.3
2016-Jul-22 11:25N 28°17' W 015°16'2 1.5
2016-Jul-22 10:25N 28°18' W 015°15'1 1.5
2016-Jul-22 09:28N 28°19' W 015°14'5 5.5
2016-Jul-22 08:33N 28°21' W 015°19'6 6.1
2016-Jul-22 07:34N 28°24' W 015°24'8 4.0
2016-Jul-22 05:33N 28°28' W 015°33'1 1.3
2016-Jul-22 04:33N 28°29' W 015°31'1 1.4
2016-Jul-22 03:33N 28°29' W 015°30'1 1.5
2016-Jul-22 02:33N 28°30' W 015°29'2 1.5
2016-Jul-22 01:33N 28°31' W 015°27'1 1.5
2016-Jul-22 00:33N 28°32' W 015°26'1 1.5
2016-Jul-21 23:33N 28°34' W 015°25'1 1.4
2016-Jul-21 22:33N 28°35' W 015°25'1 1.4
2016-Jul-21 21:33N 28°36' W 015°24'1 1.2
2016-Jul-21 20:33N 28°37' W 015°23'1 1.1
2016-Jul-21 19:33N 28°38' W 015°23'1 0.9
2016-Jul-21 18:33N 28°39' W 015°22'1 0.9
2016-Jul-21 17:33N 28°40' W 015°22'1 0.8
2016-Jul-21 16:33N 28°40' W 015°21'1 0.8
2016-Jul-21 15:33N 28°41' W 015°20'1 1.0
2016-Jul-21 14:33N 28°41' W 015°19'1 1.0
2016-Jul-21 13:33N 28°42' W 015°18'1 1.0
2016-Jul-21 12:33N 28°42' W 015°17'1 1.0
2016-Jul-21 11:33N 28°43' W 015°16'1 1.0
2016-Jul-21 10:33N 28°43' W 015°15'1 1.1
2016-Jul-21 09:33N 28°44' W 015°14'1 1.0
2016-Jul-21 08:33N 28°44' W 015°13'1 1.0
2016-Jul-21 07:22N 28°45' W 015°12'1 1.2
2016-Jul-21 06:32N 28°45' W 015°11'1 1.2
2016-Jul-21 05:32N 28°46' W 015°10'1 1.3
2016-Jul-21 04:33N 28°47' W 015°09'1 1.4
2016-Jul-21 03:33N 28°48' W 015°08'3 2.6
2016-Jul-21 02:33N 28°46' W 015°06'1211.9
2016-Jul-21 01:32N 28°35' W 014°59'1414.0
2016-Jul-21 00:33N 28°23' W 014°51'1413.9
2016-Jul-20 23:34N 28°10' W 014°54'1414.3
2016-Jul-20 22:34N 27°56' W 014°59'1413.9
2016-Jul-20 21:33N 27°44' W 015°05'1513.4
2016-Jul-20 20:27N 27°30' W 015°12'  
Track history (hours):
 
Tides and Currents Weather Stations Pressure Air Temp Water Temp Dewpoint Dewpoint Depression Visibility Wind Speed Wind Dir Waves Ship Positions

Frio Chikuma

Last reported at 2016-Jul-24 11:13 UTC. Time now 2016-Jul-28 14:32 UTC.
Position N 21°58' W 018°19'.

Length 135 m; draft 5.2 m.

Type: Cargo ship. MMSI: 353306000.

Date/timePositionNaut miles runAvg speedWind from/ knotsBaromVisibWave heightAir tempDewpointWater temp
2016-Jul-24 11:13N 21°58' W 018°19'38315.5
2016-Jul-23 10:29N 27°46' W 015°21'1414.7
2016-Jul-23 09:33N 27°59' W 015°20'1010.1
2016-Jul-23 08:33N 28°08' W 015°25'1 0.7
2016-Jul-23 07:32N 28°09' W 015°25'0 0.0
2016-Jul-23 06:32N 28°09' W 015°25'0 0.0
2016-Jul-23 04:32N 28°09' W 015°25'0 0.0
2016-Jul-23 03:32N 28°09' W 015°25'0 0.0
2016-Jul-23 02:32N 28°09' W 015°25'0 0.0
2016-Jul-23 01:32N 28°09' W 015°25'0 0.0
2016-Jul-23 00:32N 28°09' W 015°25'0 0.0
2016-Jul-22 23:32N 28°09' W 015°25'0 0.0
2016-Jul-22 22:32N 28°09' W 015°25'0 0.0
2016-Jul-22 21:32N 28°09' W 015°25'0 0.0
2016-Jul-22 20:32N 28°09' W 015°25'0 0.0
2016-Jul-22 19:32N 28°09' W 015°25'0 0.0
2016-Jul-22 18:32N 28°09' W 015°25'0 0.3
2016-Jul-22 17:33N 28°08' W 015°25'3 3.0
2016-Jul-22 16:32N 28°07' W 015°22'2 1.9
2016-Jul-22 15:33N 28°09' W 015°21'4 4.3
2016-Jul-22 14:33N 28°13' W 015°20'4 3.4
2016-Jul-22 13:31N 28°16' W 015°19'1 1.1
2016-Jul-22 12:22N 28°17' W 015°18'1 1.3
2016-Jul-22 11:25N 28°17' W 015°16'2 1.5
2016-Jul-22 10:25N 28°18' W 015°15'1 1.5
2016-Jul-22 09:28N 28°19' W 015°14'5 5.5
2016-Jul-22 08:33N 28°21' W 015°19'6 6.1
2016-Jul-22 07:34N 28°24' W 015°24'8 4.0
2016-Jul-22 05:33N 28°28' W 015°33'1 1.3
2016-Jul-22 04:33N 28°29' W 015°31'1 1.4
2016-Jul-22 03:33N 28°29' W 015°30'1 1.5
2016-Jul-22 02:33N 28°30' W 015°29'2 1.5
2016-Jul-22 01:33N 28°31' W 015°27'1 1.5
2016-Jul-22 00:33N 28°32' W 015°26'1 1.5
2016-Jul-21 23:33N 28°34' W 015°25'1 1.4
2016-Jul-21 22:33N 28°35' W 015°25'1 1.4
2016-Jul-21 21:33N 28°36' W 015°24'1 1.2
2016-Jul-21 20:33N 28°37' W 015°23'1 1.1
2016-Jul-21 19:33N 28°38' W 015°23'1 0.9
2016-Jul-21 18:33N 28°39' W 015°22'1 0.9
2016-Jul-21 17:33N 28°40' W 015°22'1 0.8
2016-Jul-21 16:33N 28°40' W 015°21'1 0.8
2016-Jul-21 15:33N 28°41' W 015°20'1 1.0
2016-Jul-21 14:33N 28°41' W 015°19'1 1.0
2016-Jul-21 13:33N 28°42' W 015°18'1 1.0
2016-Jul-21 12:33N 28°42' W 015°17'1 1.0
2016-Jul-21 11:33N 28°43' W 015°16'1 1.0
2016-Jul-21 10:33N 28°43' W 015°15'1 1.1
2016-Jul-21 09:33N 28°44' W 015°14'1 1.0
2016-Jul-21 08:33N 28°44' W 015°13'1 1.0
2016-Jul-21 07:22N 28°45' W 015°12'1 1.2
2016-Jul-21 06:32N 28°45' W 015°11'1 1.2
2016-Jul-21 05:32N 28°46' W 015°10'1 1.3
2016-Jul-21 04:33N 28°47' W 015°09'1 1.4
2016-Jul-21 03:33N 28°48' W 015°08'3 2.6
2016-Jul-21 02:33N 28°46' W 015°06'1211.9
2016-Jul-21 01:32N 28°35' W 014°59'1414.0
2016-Jul-21 00:33N 28°23' W 014°51'1413.9
2016-Jul-20 23:34N 28°10' W 014°54'1414.3
2016-Jul-20 22:34N 27°56' W 014°59'1413.9
2016-Jul-20 21:33N 27°44' W 015°05'1513.4
2016-Jul-20 20:27N 27°30' W 015°12'  

Dump ship's entire track history